Latest Coastal Weather Observations for Low Head

IDT60701

Issued at 8:16 pm EDT Wednesday 28 January 2015 (issued every 10 minutes, with the page automatically refreshed every 10 minutes)

About coastal observations | Map of coastal stations | Coastal observations for TAS | Marine services | Other Formats
Station Details ID: 091293 Name: LOW HEAD Lat: -41.05 Lon: 146.79 Height: 3.0 m
Data from the previous 72 hours. | See also: Recent months at Low Head
Date/Time
EDT
Temp

°C
Wind Pressure Rain
since 9am
mm
Weather Cloud Vis
km
Sea
Height
m
Swell
Dir
 
Speed
knots
Gust
knots
hPa Trend Height
m
Period
s
Dir
28/08:00pm 17.3 SE 12 20 1022.1 - 0.0 - - - - - - -
28/07:30pm 18.3 SE 13 19 1021.8 - 0.0 - - - - - - -
28/07:00pm 19.4 ESE 13 21 1021.3 - 0.0 - - - - - - -
28/06:30pm 19.9 ESE 12 21 1021.2 - 0.0 - - - - - - -
28/06:00pm 20.7 SE 14 21 1021.0 - 0.0 - - - - - - -
28/05:30pm 21.2 SE 13 21 1020.6 - 0.0 - - - - - - -
28/05:00pm 21.3 SSE 17 23 1020.7 - 0.0 - - - - - - -
28/04:40pm 21.3 SSE 16 26 1020.6 - 0.0 - - - - - - -
28/04:30pm 21.4 SSE 16 22 1020.6 - 0.0 - - - - - - -
28/04:00pm 22.1 SSE 15 23 1020.8 - 0.0 - - - - - - -
28/03:30pm 21.7 SE 14 21 1020.8 - 0.0 - - - - - - -
28/03:09pm 21.8 SE 15 25 1020.9 - 0.0 - - - - - - -
28/03:00pm 22.1 SSE 17 25 1020.9 - 0.0 - - - - - - -
28/02:43pm 21.6 SSE 17 28 1020.8 - 0.0 - - - - - - -
28/02:30pm 21.3 SSE 15 23 1020.9 - 0.0 - - - - - - -
28/02:07pm 21.2 SSE 15 25 1021.2 - 0.0 - - - - - - -
28/02:00pm 21.2 SSE 16 25 1021.1 - 0.0 - - - - - - -
28/01:30pm 21.0 SSE 15 22 1021.5 - 0.0 - - - - - - -
28/01:14pm 20.7 SSE 17 27 1021.5 - 0.0 - - - - - - -
28/01:00pm 20.8 SSE 18 23 1021.4 - 0.0 - - - - - - -
28/12:30pm 19.6 SSE 17 25 1021.7 - 0.0 - - - - - - -
28/12:00pm 19.5 SSE 17 23 1021.8 - 0.0 - - - - - - -
28/11:30am 18.4 SSE 15 22 1021.8 - 0.0 - - - - - - -
28/11:00am 17.6 SSE 15 23 1022.1 - 0.0 - - - - - - -
28/10:30am 17.0 SSE 17 24 1022.2 - 0.0 - - - - - - -
28/10:00am 16.5 SSE 18 24 1022.0 - 0.0 - - - - - - -
28/09:30am 15.7 SSE 17 26 1021.9 - 0.0 - - - - - - -
28/09:00am 15.4 SSE 16 22 1021.9 - 0.0 - - - - - - -
28/08:30am 14.8 SSE 16 22 1021.6 - 0.0 - - - - - - -
28/08:00am 13.8 SSE 13 18 1021.4 - 0.0 - - - - - - -
28/07:30am 13.1 SSE 13 18 1021.1 - 0.0 - - - - - - -
28/07:00am 12.7 SSE 18 22 1020.5 - 0.0 - - - - - - -
28/06:30am 12.5 SSE 17 21 1020.5 - 0.0 - - - - - - -
28/06:00am 12.3 SSE 12 20 1020.2 - 0.0 - - - - - - -
28/05:30am 12.0 SE 9 13 1020.0 - 0.0 - - - - - - -
28/05:00am 12.2 SE 8 11 1020.0 - 0.0 - - - - - - -
28/04:30am 12.4 SSE 11 14 1019.8 - 0.0 - - - - - - -
28/04:00am 12.5 SSE 9 12 1019.8 - 0.0 - - - - - - -
28/03:30am 12.9 SSE 12 16 1019.9 - 0.0 - - - - - - -
28/03:00am 13.3 SSE 11 16 1019.9 - 0.0 - - - - - - -
28/02:30am 13.5 SSE 11 16 1019.9 - 0.0 - - - - - - -
28/02:00am 13.2 SSE 8 12 1019.9 - 0.0 - - - - - - -
28/01:30am 13.8 SSE 10 15 1019.9 - 0.0 - - - - - - -
28/01:00am 14.6 SSE 12 17 1019.8 - 0.0 - - - - - - -
28/12:55am 14.7 SSE 13 17 1019.7 - 0.0 - - - - - - -
28/12:30am 14.7 SE 4 6 1019.7 - 0.0 - - - - - - -
28/12:00am 14.9 ESE 4 6 1019.4 - 0.0 - - - - - - -
 
Date/Time
EDT
Temp

°C
Wind Pressure Rain
since 9am
mm
Weather Cloud Vis
km
Sea
Height
m
Swell
Dir
 
Speed
knots
Gust
knots
hPa Trend Height
m
Period
s
Dir
27/11:30pm 14.7 SE 7 8 1019.3 - 0.0 - - - - - - -
27/11:00pm 14.6 SSE 8 11 1019.4 - 0.0 - - - - - - -
27/10:30pm 14.2 SE 5 8 1019.0 - 0.0 - - - - - - -
27/10:00pm 15.7 E 6 9 1018.8 - 0.0 - - - - - - -
27/09:30pm 15.1 SE 4 6 1018.5 - 0.0 - - - - - - -
27/09:00pm 15.0 ESE 6 8 1018.1 - 0.0 - - - - - - -
27/08:30pm 16.5 ENE 13 15 1017.5 - 0.0 - - - - - - -
27/08:00pm 16.5 NE 12 15 1017.0 - 0.0 - - - - - - -
27/07:30pm 16.4 NE 10 11 1016.8 - 0.0 - - - - - - -
27/07:00pm 16.8 NE 7 8 1016.5 - 0.0 - - - - - - -
27/06:30pm 16.8 N 5 7 1016.0 - 0.0 - - - - - - -
27/06:00pm 17.2 N 6 7 1015.6 - 0.0 - - - - - - -
27/05:30pm 17.2 N 7 9 1015.6 - 0.0 - - - - - - -
27/05:00pm 17.4 N 9 10 1015.5 - 0.0 - - - - - - -
27/04:30pm 16.9 N 9 10 1015.5 - 0.0 - - - - - - -
27/04:00pm 17.9 N 9 11 1015.5 - 0.0 - - - - - - -
27/03:30pm 18.2 N 10 11 1015.7 - 0.0 - - - - - - -
27/03:00pm 18.2 N 11 13 1015.7 - 0.0 - - - - - - -
27/02:30pm 17.3 NNE 13 15 1015.5 - 0.0 - - - - - - -
27/02:00pm 17.6 NNE 12 13 1015.8 - 0.0 - - - - - - -
27/01:30pm 17.7 NNE 9 10 1016.1 - 0.0 - - - - - - -
27/01:00pm 17.2 NNE 9 11 1016.2 - 0.0 - - - - - - -
27/12:30pm 17.4 NNE 9 10 1016.3 - 0.0 - - - - - - -
27/12:00pm 17.0 NNE 6 7 1016.6 - 0.0 - - - - - - -
27/11:30am 17.0 NNW 4 5 1016.9 - 0.0 - - - - - - -
27/11:00am 16.8 NNW 3 5 1017.1 - 0.0 - - - - - - -
27/10:30am 17.1 NNW 7 9 1016.8 - 0.0 - - - - - - -
27/10:00am 16.9 N 11 12 1016.7 - 0.0 - - - - - - -
27/09:30am 16.4 NE 9 12 1016.5 - 0.0 - - - - - - -
27/09:00am 15.9 ENE 7 11 1016.3 - 0.0 - - - - - - -
27/08:30am 14.2 S 8 9 1016.6 - 0.0 - - - - - - -
27/08:00am 13.3 SSE 6 8 1016.3 - 0.0 - - - - - - -
27/07:30am 12.0 SSE 7 10 1016.0 - 0.0 - - - - - - -
27/07:00am 11.0 SSE 9 11 1015.8 - 0.0 - - - - - - -
27/06:30am 10.7 SSE 8 9 1015.7 - 0.0 - - - - - - -
27/06:00am 10.8 SSE 8 9 1015.7 - 0.0 - - - - - - -
27/05:30am 10.9 SSE 8 9 1015.5 - 0.0 - - - - - - -
27/05:00am 10.9 SSE 8 9 1015.6 - 0.0 - - - - - - -
27/04:30am 11.7 SSE 6 7 1015.7 - 0.0 - - - - - - -
27/04:00am 11.7 ESE 6 8 1015.5 - 0.0 - - - - - - -
27/03:30am 12.1 SSE 6 7 1015.7 - 0.0 - - - - - - -
27/03:00am 11.8 SE 6 7 1015.7 - 0.0 - - - - - - -
27/02:30am 12.0 SE 4 7 1015.8 - 0.0 - - - - - - -
27/02:00am 12.6 SE 3 5 1015.9 - 0.0 - - - - - - -
27/01:30am 13.3 CALM 0 0 1015.9 - 0.0 - - - - - - -
27/01:00am 13.6 S 7 9 1016.0 - 0.0 - - - - - - -
27/12:30am 15.3 WNW 6 8 1016.0 - 0.0 - - - - - - -
27/12:00am 15.9 W 9 11 1015.9 - 0.0 - - - - - - -
 
Date/Time
EDT
Temp

°C
Wind Pressure Rain
since 9am
mm
Weather Cloud Vis
km
Sea
Height
m
Swell
Dir
 
Speed
knots
Gust
knots
hPa Trend Height
m
Period
s
Dir
26/11:30pm 15.8 W 12 13 1015.8 - 0.0 - - - - - - -
26/11:00pm 16.1 W 13 15 1015.8 - 0.0 - - - - - - -
26/10:30pm 16.4 W 15 17 1015.6 - 0.0 - - - - - - -
26/10:00pm 16.7 W 15 17 1015.3 - 0.0 - - - - - - -
26/09:30pm 17.1 W 17 21 1014.8 - 0.0 - - - - - - -
26/09:00pm 17.3 W 18 21 1014.4 - 0.0 - - - - - - -
26/08:30pm 17.5 W 19 22 1014.2 - 0.0 - - - - - - -
26/08:00pm 18.0 W 19 22 1013.8 - 0.0 - - - - - - -
26/07:30pm 18.4 W 19 22 1013.6 - 0.0 - - - - - - -
26/07:00pm 18.8 WNW 18 21 1013.4 - 0.0 - - - - - - -
26/06:30pm 19.2 WNW 17 20 1013.2 - 0.0 - - - - - - -
26/06:00pm 19.6 WNW 16 18 1013.2 - 0.0 - - - - - - -
26/05:30pm 19.2 NW 17 19 1013.2 - 0.0 - - - - - - -
26/05:00pm 19.1 NW 19 21 1013.3 - 0.0 - - - - - - -
26/04:30pm 19.2 WNW 19 21 1013.5 - 0.0 - - - - - - -
26/04:00pm 19.3 WNW 19 21 1013.6 - 0.0 - - - - - - -
26/03:30pm 19.2 WNW 20 22 1013.5 - 0.0 - - - - - - -
26/03:00pm 19.4 WNW 19 22 1013.5 - 0.0 - - - - - - -
26/02:30pm 19.1 WNW 19 22 1013.6 - 0.0 - - - - - - -
26/02:00pm 19.2 WNW 18 22 1013.9 - 0.0 - - - - - - -
26/01:30pm 19.1 WNW 19 22 1014.1 - 0.0 - - - - - - -
26/01:00pm 18.5 WNW 17 20 1014.2 - 0.0 - - - - - - -
26/12:30pm 18.2 WNW 17 20 1014.3 - 0.0 - - - - - - -
26/12:00pm 17.2 WNW 14 17 1014.2 - 0.0 - - - - - - -
26/11:30am 16.6 W 15 18 1014.3 - 0.0 - - - - - - -
26/11:00am 16.0 W 16 19 1014.4 - 0.0 - - - - - - -
26/10:30am 15.6 W 17 21 1014.3 - 0.0 - - - - - - -
26/10:00am 15.0 W 17 19 1014.1 - 0.0 - - - - - - -
26/09:30am 14.4 W 13 17 1014.0 - 0.0 - - - - - - -
26/09:00am 13.9 W 15 18 1013.8 - 0.0 - - - - - - -
26/08:30am 13.9 WSW 15 19 1013.4 - 0.0 - - - - - - -
26/08:00am 13.7 W 16 19 1013.1 - 0.0 - - - - - - -
26/07:30am 13.6 W 16 19 1012.9 - 0.0 - - - - - - -
26/07:00am 13.2 W 13 17 1012.3 - 0.0 - - - - - - -
26/06:30am 13.1 W 13 17 1012.0 - 0.0 - - - - - - -
26/06:00am 13.0 W 13 17 1011.6 - 0.0 - - - - - - -
26/05:30am 13.1 W 16 19 1010.5 - 0.0 - - - - - - -
26/05:00am 13.4 W 17 20 1010.3 - 0.0 - - - - - - -
26/04:30am 13.4 W 19 23 1010.1 - 0.0 - - - - - - -
26/04:00am 13.2 W 19 23 1009.7 - 0.0 - - - - - - -
26/03:30am 13.2 W 18 21 1009.6 - 0.0 - - - - - - -
26/03:00am 12.9 W 17 22 1009.4 - 0.0 - - - - - - -
26/02:30am 13.0 W 18 23 1009.1 - 0.0 - - - - - - -
26/02:00am 12.9 W 18 22 1009.0 - 0.0 - - - - - - -
26/01:30am 12.8 W 19 23 1008.9 - 0.0 - - - - - - -
26/01:00am 12.9 W 20 26 1008.8 - 0.0 - - - - - - -
26/12:30am 13.2 W 22 27 1008.7 - 0.0 - - - - - - -
26/12:00am 13.3 W 21 25 1008.6 - 0.0 - - - - - - -
 
Date/Time
EDT
Temp

°C
Wind Pressure Rain
since 9am
mm
Weather Cloud Vis
km
Sea
Height
m
Swell
Dir
 
Speed
knots
Gust
knots
hPa Trend Height
m
Period
s
Dir
25/11:30pm 13.1 W 21 26 1008.5 - 0.0 - - - - - - -
25/11:00pm 13.0 W 21 26 1008.4 - 0.0 - - - - - - -
25/10:30pm 13.0 W 22 26 1008.0 - 0.0 - - - - - - -
25/10:00pm 13.5 W 21 26 1007.8 - 0.0 - - - - - - -
25/09:30pm 13.9 WSW 25 32 1007.1 - 0.0 - - - - - - -
25/09:00pm 14.1 WSW 24 29 1006.4 - 0.0 - - - - - - -
25/08:30pm 14.0 WSW 23 28 1006.1 - 0.0 - - - - - - -

Other Formats:

Comma delimited format used in spreadsheet applications
http://www.bom.gov.au/fwo/IDT60701/IDT60701.95964.axf

JavaScript Object Notation format (JSON) in row-major order
http://www.bom.gov.au/fwo/IDT60701/IDT60701.95964.json